sensor_id;sensor_type;location;lat;lon;timestamp;pressure;altitude;pressure_sealevel;temperature;humidity
85798;BME280;76244;53.434;14.484;2024-02-14T00:02:32;101759.96;;;6.45;67.50
85798;BME280;76244;53.434;14.484;2024-02-14T00:05:08;101764.37;;;6.45;67.33
85798;BME280;76244;53.434;14.484;2024-02-14T00:07:41;101765.84;;;6.48;67.39
85798;BME280;76244;53.434;14.484;2024-02-14T00:10:14;101768.18;;;6.50;67.29
85798;BME280;76244;53.434;14.484;2024-02-14T00:12:47;101765.80;;;6.51;67.36
85798;BME280;76244;53.434;14.484;2024-02-14T00:15:20;101764.91;;;6.51;67.08
85798;BME280;76244;53.434;14.484;2024-02-14T00:17:55;101769.98;;;6.51;67.16
85798;BME280;76244;53.434;14.484;2024-02-14T00:20:28;101772.20;;;6.49;67.05
85798;BME280;76244;53.434;14.484;2024-02-14T00:23:01;101768.44;;;6.47;67.03
85798;BME280;76244;53.434;14.484;2024-02-14T00:25:33;101766.95;;;6.44;67.06
85798;BME280;76244;53.434;14.484;2024-02-14T00:28:07;101768.40;;;6.40;67.09
85798;BME280;76244;53.434;14.484;2024-02-14T00:30:39;101773.21;;;6.38;67.20
85798;BME280;76244;53.434;14.484;2024-02-14T00:33:11;101769.96;;;6.34;67.09
85798;BME280;76244;53.434;14.484;2024-02-14T00:35:44;101769.13;;;6.31;66.96
85798;BME280;76244;53.434;14.484;2024-02-14T00:38:17;101767.42;;;6.26;67.21
85798;BME280;76244;53.434;14.484;2024-02-14T00:40:50;101770.61;;;6.22;67.24
85798;BME280;76244;53.434;14.484;2024-02-14T00:43:22;101767.70;;;6.19;67.12
85798;BME280;76244;53.434;14.484;2024-02-14T00:45:54;101771.05;;;6.15;67.38
85798;BME280;76244;53.434;14.484;2024-02-14T00:48:27;101774.22;;;6.10;67.11
85798;BME280;76244;53.434;14.484;2024-02-14T00:51:00;101769.17;;;6.05;67.34
85798;BME280;76244;53.434;14.484;2024-02-14T00:53:33;101767.80;;;6.01;67.21
85798;BME280;76244;53.434;14.484;2024-02-14T00:56:11;101770.64;;;5.97;67.46
85798;BME280;76244;53.434;14.484;2024-02-14T00:58:43;101770.35;;;5.94;67.19
85798;BME280;76244;53.434;14.484;2024-02-14T01:01:16;101765.52;;;5.91;67.28
85798;BME280;76244;53.434;14.484;2024-02-14T01:03:49;101765.77;;;5.89;67.40
85798;BME280;76244;53.434;14.484;2024-02-14T01:06:21;101766.94;;;5.88;67.61
85798;BME280;76244;53.434;14.484;2024-02-14T01:08:55;101763.94;;;5.86;67.44
85798;BME280;76244;53.434;14.484;2024-02-14T01:11:28;101768.00;;;5.88;67.53
85798;BME280;76244;53.434;14.484;2024-02-14T01:14:01;101766.45;;;5.88;67.59
85798;BME280;76244;53.434;14.484;2024-02-14T01:16:34;101765.13;;;5.90;67.57
85798;BME280;76244;53.434;14.484;2024-02-14T01:19:13;101762.77;;;5.93;67.36
85798;BME280;76244;53.434;14.484;2024-02-14T01:21:46;101759.16;;;5.94;67.32
85798;BME280;76244;53.434;14.484;2024-02-14T01:24:19;101760.41;;;5.95;67.24
85798;BME280;76244;53.434;14.484;2024-02-14T01:26:54;101757.95;;;5.95;67.44
85798;BME280;76244;53.434;14.484;2024-02-14T01:29:27;101755.15;;;5.94;67.21
85798;BME280;76244;53.434;14.484;2024-02-14T01:31:59;101756.30;;;5.92;67.16
85798;BME280;76244;53.434;14.484;2024-02-14T01:34:32;101750.95;;;5.90;67.17
85798;BME280;76244;53.434;14.484;2024-02-14T01:37:04;101749.13;;;5.88;67.17
85798;BME280;76244;53.434;14.484;2024-02-14T01:39:37;101749.05;;;5.86;67.24
85798;BME280;76244;53.434;14.484;2024-02-14T01:42:09;101751.60;;;5.84;67.17
85798;BME280;76244;53.434;14.484;2024-02-14T01:44:41;101746.75;;;5.80;67.34
85798;BME280;76244;53.434;14.484;2024-02-14T01:47:14;101745.41;;;5.77;67.28
85798;BME280;76244;53.434;14.484;2024-02-14T01:49:50;101739.70;;;5.73;67.42
85798;BME280;76244;53.434;14.484;2024-02-14T01:52:22;101737.13;;;5.69;67.47
85798;BME280;76244;53.434;14.484;2024-02-14T01:54:55;101737.89;;;5.66;67.56
85798;BME280;76244;53.434;14.484;2024-02-14T01:57:28;101736.04;;;5.63;67.62
85798;BME280;76244;53.434;14.484;2024-02-14T02:00:02;101743.82;;;5.61;67.75
85798;BME280;76244;53.434;14.484;2024-02-14T02:02:39;101744.38;;;5.57;67.86
85798;BME280;76244;53.434;14.484;2024-02-14T02:05:12;101744.44;;;5.54;67.96
85798;BME280;76244;53.434;14.484;2024-02-14T02:07:44;101743.65;;;5.52;68.06
85798;BME280;76244;53.434;14.484;2024-02-14T02:10:19;101743.97;;;5.51;68.09
85798;BME280;76244;53.434;14.484;2024-02-14T02:13:00;101735.27;;;5.52;67.88
85798;BME280;76244;53.434;14.484;2024-02-14T02:15:33;101731.98;;;5.53;67.94
85798;BME280;76244;53.434;14.484;2024-02-14T02:18:06;101731.20;;;5.55;68.07
85798;BME280;76244;53.434;14.484;2024-02-14T02:20:38;101729.84;;;5.56;67.82
85798;BME280;76244;53.434;14.484;2024-02-14T02:23:14;101733.90;;;5.57;67.85
85798;BME280;76244;53.434;14.484;2024-02-14T02:25:46;101727.29;;;5.58;67.87
85798;BME280;76244;53.434;14.484;2024-02-14T02:28:19;101728.31;;;5.57;67.47
85798;BME280;76244;53.434;14.484;2024-02-14T02:30:54;101728.77;;;5.56;67.66
85798;BME280;76244;53.434;14.484;2024-02-14T02:33:29;101727.79;;;5.52;67.67
85798;BME280;76244;53.434;14.484;2024-02-14T02:36:01;101724.00;;;5.49;67.70
85798;BME280;76244;53.434;14.484;2024-02-14T02:38:34;101721.05;;;5.45;67.45
85798;BME280;76244;53.434;14.484;2024-02-14T02:41:07;101722.98;;;5.40;67.21
85798;BME280;76244;53.434;14.484;2024-02-14T02:43:40;101718.77;;;5.35;67.46
85798;BME280;76244;53.434;14.484;2024-02-14T02:46:12;101725.07;;;5.31;67.57
85798;BME280;76244;53.434;14.484;2024-02-14T02:48:45;101726.49;;;5.26;67.46
85798;BME280;76244;53.434;14.484;2024-02-14T02:51:19;101725.30;;;5.22;67.86
85798;BME280;76244;53.434;14.484;2024-02-14T02:53:52;101726.55;;;5.18;67.69
85798;BME280;76244;53.434;14.484;2024-02-14T02:56:25;101726.42;;;5.15;68.14
85798;BME280;76244;53.434;14.484;2024-02-14T02:58:58;101728.27;;;5.13;67.98
85798;BME280;76244;53.434;14.484;2024-02-14T03:01:38;101722.96;;;5.11;68.34
85798;BME280;76244;53.434;14.484;2024-02-14T03:04:11;101723.23;;;5.09;68.38
85798;BME280;76244;53.434;14.484;2024-02-14T03:06:46;101718.79;;;5.07;68.25
85798;BME280;76244;53.434;14.484;2024-02-14T03:09:18;101715.14;;;5.07;68.34
85798;BME280;76244;53.434;14.484;2024-02-14T03:11:50;101720.44;;;5.09;68.18
85798;BME280;76244;53.434;14.484;2024-02-14T03:14:23;101721.92;;;5.11;68.44
85798;BME280;76244;53.434;14.484;2024-02-14T03:16:57;101720.25;;;5.13;68.14
85798;BME280;76244;53.434;14.484;2024-02-14T03:19:31;101718.04;;;5.15;68.34
85798;BME280;76244;53.434;14.484;2024-02-14T03:22:09;101716.83;;;5.15;68.13
85798;BME280;76244;53.434;14.484;2024-02-14T03:24:42;101718.81;;;5.17;68.41
85798;BME280;76244;53.434;14.484;2024-02-14T03:27:14;101723.36;;;5.16;68.46
85798;BME280;76244;53.434;14.484;2024-02-14T03:29:50;101724.70;;;5.16;68.19
85798;BME280;76244;53.434;14.484;2024-02-14T03:32:22;101728.11;;;5.13;68.06
85798;BME280;76244;53.434;14.484;2024-02-14T03:34:55;101724.35;;;5.11;68.34
85798;BME280;76244;53.434;14.484;2024-02-14T03:37:27;101719.51;;;5.07;68.11
85798;BME280;76244;53.434;14.484;2024-02-14T03:40:00;101722.55;;;5.05;68.27
85798;BME280;76244;53.434;14.484;2024-02-14T03:42:39;101721.54;;;5.00;68.32
85798;BME280;76244;53.434;14.484;2024-02-14T03:45:12;101718.64;;;4.98;68.41
85798;BME280;76244;53.434;14.484;2024-02-14T03:47:45;101726.33;;;4.93;68.66
85798;BME280;76244;53.434;14.484;2024-02-14T03:50:17;101725.89;;;4.91;68.55
85798;BME280;76244;53.434;14.484;2024-02-14T03:52:50;101728.04;;;4.88;68.71
85798;BME280;76244;53.434;14.484;2024-02-14T03:55:22;101726.60;;;4.87;68.78
85798;BME280;76244;53.434;14.484;2024-02-14T03:57:55;101721.29;;;4.85;68.79
85798;BME280;76244;53.434;14.484;2024-02-14T04:00:29;101720.91;;;4.85;68.60
85798;BME280;76244;53.434;14.484;2024-02-14T04:03:04;101719.42;;;4.86;68.74
85798;BME280;76244;53.434;14.484;2024-02-14T04:05:38;101715.10;;;4.88;68.58
85798;BME280;76244;53.434;14.484;2024-02-14T04:08:11;101708.73;;;4.90;68.94
85798;BME280;76244;53.434;14.484;2024-02-14T04:10:44;101708.64;;;4.92;68.71
85798;BME280;76244;53.434;14.484;2024-02-14T04:13:17;101704.64;;;4.92;68.50
85798;BME280;76244;53.434;14.484;2024-02-14T04:15:49;101705.20;;;4.93;68.72
85798;BME280;76244;53.434;14.484;2024-02-14T04:18:24;101706.04;;;4.92;68.46
85798;BME280;76244;53.434;14.484;2024-02-14T04:20:57;101706.98;;;4.89;68.52
85798;BME280;76244;53.434;14.484;2024-02-14T04:23:30;101705.89;;;4.89;68.57
85798;BME280;76244;53.434;14.484;2024-02-14T04:26:04;101703.88;;;4.86;68.49
85798;BME280;76244;53.434;14.484;2024-02-14T04:28:36;101704.84;;;4.84;68.78
85798;BME280;76244;53.434;14.484;2024-02-14T04:31:11;101706.52;;;4.82;68.85
85798;BME280;76244;53.434;14.484;2024-02-14T04:33:43;101705.15;;;4.78;68.80
85798;BME280;76244;53.434;14.484;2024-02-14T04:36:21;101704.52;;;4.75;69.01
85798;BME280;76244;53.434;14.484;2024-02-14T04:38:54;101706.51;;;4.72;69.05
85798;BME280;76244;53.434;14.484;2024-02-14T04:41:27;101706.61;;;4.71;69.51
85798;BME280;76244;53.434;14.484;2024-02-14T04:44:00;101708.09;;;4.68;69.08
85798;BME280;76244;53.434;14.484;2024-02-14T04:46:33;101706.44;;;4.66;69.13
85798;BME280;76244;53.434;14.484;2024-02-14T04:49:05;101705.02;;;4.65;69.17
85798;BME280;76244;53.434;14.484;2024-02-14T04:51:38;101700.83;;;4.65;69.14
85798;BME280;76244;53.434;14.484;2024-02-14T04:54:11;101697.95;;;4.68;69.16
85798;BME280;76244;53.434;14.484;2024-02-14T04:56:44;101694.56;;;4.70;69.04
85798;BME280;76244;53.434;14.484;2024-02-14T04:59:22;101698.02;;;4.74;68.99
85798;BME280;76244;53.434;14.484;2024-02-14T05:01:54;101692.71;;;4.77;68.99
85798;BME280;76244;53.434;14.484;2024-02-14T05:04:27;101689.45;;;4.78;68.74
85798;BME280;76244;53.434;14.484;2024-02-14T05:07:00;101688.95;;;4.79;69.04
85798;BME280;76244;53.434;14.484;2024-02-14T05:09:33;101680.94;;;4.80;68.73
85798;BME280;76244;53.434;14.484;2024-02-14T05:12:06;101681.29;;;4.80;69.02
85798;BME280;76244;53.434;14.484;2024-02-14T05:14:42;101686.17;;;4.79;69.05
85798;BME280;76244;53.434;14.484;2024-02-14T05:17:15;101682.45;;;4.78;68.93
85798;BME280;76244;53.434;14.484;2024-02-14T05:19:48;101681.69;;;4.76;69.01
85798;BME280;76244;53.434;14.484;2024-02-14T05:22:20;101680.74;;;4.74;68.82
85798;BME280;76244;53.434;14.484;2024-02-14T05:24:53;101684.68;;;4.72;68.92
85798;BME280;76244;53.434;14.484;2024-02-14T05:27:25;101686.89;;;4.70;68.78
85798;BME280;76244;53.434;14.484;2024-02-14T05:30:01;101691.17;;;4.69;68.98
85798;BME280;76244;53.434;14.484;2024-02-14T05:32:37;101691.80;;;4.67;69.08
85798;BME280;76244;53.434;14.484;2024-02-14T05:35:11;101689.98;;;4.65;69.28
85798;BME280;76244;53.434;14.484;2024-02-14T05:37:44;101691.96;;;4.62;69.24
85798;BME280;76244;53.434;14.484;2024-02-14T05:40:22;101691.77;;;4.62;69.25
85798;BME280;76244;53.434;14.484;2024-02-14T05:42:55;101693.02;;;4.62;69.43
85798;BME280;76244;53.434;14.484;2024-02-14T05:45:28;101690.13;;;4.64;69.15
85798;BME280;76244;53.434;14.484;2024-02-14T05:48:00;101684.80;;;4.67;69.35
85798;BME280;76244;53.434;14.484;2024-02-14T05:50:33;101682.17;;;4.70;69.53
85798;BME280;76244;53.434;14.484;2024-02-14T05:53:06;101677.13;;;4.75;69.29
85798;BME280;76244;53.434;14.484;2024-02-14T05:55:38;101673.05;;;4.79;68.92
85798;BME280;76244;53.434;14.484;2024-02-14T05:58:10;101672.64;;;4.82;69.06
85798;BME280;76244;53.434;14.484;2024-02-14T06:00:43;101670.95;;;4.83;69.24
85798;BME280;76244;53.434;14.484;2024-02-14T06:03:17;101667.99;;;4.83;68.81
85798;BME280;76244;53.434;14.484;2024-02-14T06:05:49;101668.86;;;4.83;69.20
85798;BME280;76244;53.434;14.484;2024-02-14T06:08:22;101670.09;;;4.83;69.03
85798;BME280;76244;53.434;14.484;2024-02-14T06:10:55;101671.80;;;4.82;68.99
85798;BME280;76244;53.434;14.484;2024-02-14T06:13:30;101666.66;;;4.80;69.07
85798;BME280;76244;53.434;14.484;2024-02-14T06:16:03;101667.66;;;4.79;68.95
85798;BME280;76244;53.434;14.484;2024-02-14T06:18:36;101672.70;;;4.78;69.04
85798;BME280;76244;53.434;14.484;2024-02-14T06:21:10;101671.20;;;4.75;69.44
85798;BME280;76244;53.434;14.484;2024-02-14T06:23:43;101663.29;;;4.74;69.63
85798;BME280;76244;53.434;14.484;2024-02-14T06:26:18;101662.70;;;4.72;69.02
85798;BME280;76244;53.434;14.484;2024-02-14T06:28:50;101662.61;;;4.70;69.26
85798;BME280;76244;53.434;14.484;2024-02-14T06:31:25;101662.92;;;4.69;69.52
85798;BME280;76244;53.434;14.484;2024-02-14T06:33:59;101665.89;;;4.69;69.59
85798;BME280;76244;53.434;14.484;2024-02-14T06:36:31;101663.87;;;4.71;69.40
85798;BME280;76244;53.434;14.484;2024-02-14T06:39:06;101663.10;;;4.74;69.59
85798;BME280;76244;53.434;14.484;2024-02-14T06:41:40;101662.20;;;4.78;69.36
85798;BME280;76244;53.434;14.484;2024-02-14T06:44:12;101665.15;;;4.82;69.29
85798;BME280;76244;53.434;14.484;2024-02-14T06:46:45;101667.54;;;4.85;69.29
85798;BME280;76244;53.434;14.484;2024-02-14T06:49:18;101667.27;;;4.87;69.27
85798;BME280;76244;53.434;14.484;2024-02-14T06:51:51;101674.48;;;4.89;69.39
85798;BME280;76244;53.434;14.484;2024-02-14T06:54:23;101676.83;;;4.91;69.04
85798;BME280;76244;53.434;14.484;2024-02-14T06:56:55;101676.14;;;4.91;69.05
85798;BME280;76244;53.434;14.484;2024-02-14T06:59:28;101676.17;;;4.92;69.20
85798;BME280;76244;53.434;14.484;2024-02-14T07:02:00;101674.96;;;4.92;69.31
85798;BME280;76244;53.434;14.484;2024-02-14T07:04:43;101673.33;;;4.91;69.26
85798;BME280;76244;53.434;14.484;2024-02-14T07:07:16;101673.48;;;4.90;69.10
85798;BME280;76244;53.434;14.484;2024-02-14T07:09:48;101674.77;;;4.92;69.42
85798;BME280;76244;53.434;14.484;2024-02-14T07:12:24;101674.75;;;4.91;69.50
85798;BME280;76244;53.434;14.484;2024-02-14T07:14:57;101680.35;;;4.92;69.39
85798;BME280;76244;53.434;14.484;2024-02-14T07:17:30;101677.30;;;4.94;69.17
85798;BME280;76244;53.434;14.484;2024-02-14T07:20:04;101679.14;;;4.96;69.31
85798;BME280;76244;53.434;14.484;2024-02-14T07:22:37;101676.98;;;5.00;69.27
85798;BME280;76244;53.434;14.484;2024-02-14T07:25:09;101674.85;;;5.04;68.92
85798;BME280;76244;53.434;14.484;2024-02-14T07:27:42;101673.23;;;5.07;69.22
85798;BME280;76244;53.434;14.484;2024-02-14T07:30:17;101674.77;;;5.11;69.24
85798;BME280;76244;53.434;14.484;2024-02-14T07:32:50;101670.84;;;5.13;68.94
85798;BME280;76244;53.434;14.484;2024-02-14T07:35:23;101668.40;;;5.13;68.94
85798;BME280;76244;53.434;14.484;2024-02-14T07:37:56;101661.77;;;5.13;69.03
85798;BME280;76244;53.434;14.484;2024-02-14T07:40:30;101660.56;;;5.14;68.89
85798;BME280;76244;53.434;14.484;2024-02-14T07:43:03;101657.39;;;5.13;68.81
85798;BME280;76244;53.434;14.484;2024-02-14T07:45:37;101654.44;;;5.13;69.06
85798;BME280;76244;53.434;14.484;2024-02-14T07:48:10;101650.23;;;5.13;68.97
85798;BME280;76244;53.434;14.484;2024-02-14T07:50:42;101649.46;;;5.11;69.15
85798;BME280;76244;53.434;14.484;2024-02-14T07:53:17;101649.28;;;5.11;69.42
85798;BME280;76244;53.434;14.484;2024-02-14T07:55:49;101649.80;;;5.11;69.37
85798;BME280;76244;53.434;14.484;2024-02-14T07:58:23;101654.67;;;5.10;69.38
85798;BME280;76244;53.434;14.484;2024-02-14T08:00:55;101653.13;;;5.11;69.61
85798;BME280;76244;53.434;14.484;2024-02-14T08:03:27;101653.88;;;5.12;69.94
85798;BME280;76244;53.434;14.484;2024-02-14T08:06:00;101654.31;;;5.15;69.66
85798;BME280;76244;53.434;14.484;2024-02-14T08:08:33;101655.13;;;5.18;70.29
85798;BME280;76244;53.434;14.484;2024-02-14T08:11:06;101652.69;;;5.23;70.31
85798;BME280;76244;53.434;14.484;2024-02-14T08:13:38;101651.03;;;5.25;70.42
85798;BME280;76244;53.434;14.484;2024-02-14T08:16:12;101653.09;;;5.30;70.55
85798;BME280;76244;53.434;14.484;2024-02-14T08:18:44;101654.58;;;5.33;70.48
85798;BME280;76244;53.434;14.484;2024-02-14T08:21:17;101653.27;;;5.34;70.42
85798;BME280;76244;53.434;14.484;2024-02-14T08:23:50;101651.19;;;5.35;70.50
85798;BME280;76244;53.434;14.484;2024-02-14T08:26:22;101651.20;;;5.36;70.87
85798;BME280;76244;53.434;14.484;2024-02-14T08:28:55;101646.52;;;5.37;70.82
85798;BME280;76244;53.434;14.484;2024-02-14T08:31:29;101650.54;;;5.37;70.92
85798;BME280;76244;53.434;14.484;2024-02-14T08:34:03;101651.25;;;5.37;71.22
85798;BME280;76244;53.434;14.484;2024-02-14T08:36:36;101658.55;;;5.41;71.01
85798;BME280;76244;53.434;14.484;2024-02-14T08:39:12;101657.80;;;5.44;71.42
85798;BME280;76244;53.434;14.484;2024-02-14T08:41:45;101654.05;;;5.47;71.21
85798;BME280;76244;53.434;14.484;2024-02-14T08:44:18;101646.29;;;5.50;71.40
85798;BME280;76244;53.434;14.484;2024-02-14T08:46:52;101644.30;;;5.53;71.41
85798;BME280;76244;53.434;14.484;2024-02-14T08:49:25;101647.59;;;5.58;71.43
85798;BME280;76244;53.434;14.484;2024-02-14T08:51:57;101645.39;;;5.60;71.46
85798;BME280;76244;53.434;14.484;2024-02-14T08:54:29;101647.21;;;5.61;71.38
85798;BME280;76244;53.434;14.484;2024-02-14T08:57:04;101647.38;;;5.61;71.31
85798;BME280;76244;53.434;14.484;2024-02-14T08:59:37;101645.08;;;5.61;71.76
85798;BME280;76244;53.434;14.484;2024-02-14T09:02:09;101645.20;;;5.59;71.80
85798;BME280;76244;53.434;14.484;2024-02-14T09:04:41;101643.98;;;5.58;72.00
85798;BME280;76244;53.434;14.484;2024-02-14T09:07:15;101647.17;;;5.60;71.71
85798;BME280;76244;53.434;14.484;2024-02-14T09:09:48;101640.27;;;5.63;72.01
85798;BME280;76244;53.434;14.484;2024-02-14T09:12:20;101638.29;;;5.66;72.00
85798;BME280;76244;53.434;14.484;2024-02-14T09:14:53;101638.77;;;5.70;72.54
85798;BME280;76244;53.434;14.484;2024-02-14T09:17:27;101630.84;;;5.74;72.19
85798;BME280;76244;53.434;14.484;2024-02-14T09:20:02;101632.51;;;5.77;72.23
85798;BME280;76244;53.434;14.484;2024-02-14T09:22:37;101625.24;;;5.79;72.33
85798;BME280;76244;53.434;14.484;2024-02-14T09:25:12;101623.01;;;5.80;72.55
85798;BME280;76244;53.434;14.484;2024-02-14T09:27:45;101614.45;;;5.80;72.52
85798;BME280;76244;53.434;14.484;2024-02-14T09:30:18;101613.44;;;5.82;72.82
85798;BME280;76244;53.434;14.484;2024-02-14T09:33:05;101611.42;;;5.84;72.96
85798;BME280;76244;53.434;14.484;2024-02-14T09:35:39;101613.77;;;5.87;72.84
85798;BME280;76244;53.434;14.484;2024-02-14T09:38:16;101612.88;;;5.90;73.02
85798;BME280;76244;53.434;14.484;2024-02-14T09:40:48;101612.16;;;5.95;72.93
85798;BME280;76244;53.434;14.484;2024-02-14T09:43:25;101609.14;;;5.99;72.95
85798;BME280;76244;53.434;14.484;2024-02-14T09:46:00;101606.12;;;6.03;73.17
85798;BME280;76244;53.434;14.484;2024-02-14T09:48:34;101604.48;;;6.06;73.05
85798;BME280;76244;53.434;14.484;2024-02-14T09:51:12;101606.85;;;6.09;73.08
85798;BME280;76244;53.434;14.484;2024-02-14T09:53:45;101609.52;;;6.11;73.26
85798;BME280;76244;53.434;14.484;2024-02-14T09:56:19;101608.18;;;6.13;73.16
85798;BME280;76244;53.434;14.484;2024-02-14T09:58:54;101607.69;;;6.14;73.18
85798;BME280;76244;53.434;14.484;2024-02-14T10:01:28;101607.50;;;6.13;73.37
85798;BME280;76244;53.434;14.484;2024-02-14T10:04:00;101608.27;;;6.16;73.27
85798;BME280;76244;53.434;14.484;2024-02-14T10:06:34;101604.54;;;6.19;73.40
85798;BME280;76244;53.434;14.484;2024-02-14T10:09:09;101598.37;;;6.24;73.56
85798;BME280;76244;53.434;14.484;2024-02-14T10:11:42;101597.42;;;6.27;73.37
85798;BME280;76244;53.434;14.484;2024-02-14T10:14:17;101596.30;;;6.30;73.50
85798;BME280;76244;53.434;14.484;2024-02-14T10:16:50;101595.98;;;6.31;73.32
85798;BME280;76244;53.434;14.484;2024-02-14T10:19:22;101599.15;;;6.32;73.44
85798;BME280;76244;53.434;14.484;2024-02-14T10:21:59;101598.65;;;6.33;73.60
85798;BME280;76244;53.434;14.484;2024-02-14T10:24:33;101594.79;;;6.33;73.93
85798;BME280;76244;53.434;14.484;2024-02-14T10:27:11;101596.59;;;6.34;73.88
85798;BME280;76244;53.434;14.484;2024-02-14T10:29:43;101592.98;;;6.36;73.80
85798;BME280;76244;53.434;14.484;2024-02-14T10:32:17;101590.45;;;6.39;73.79
85798;BME280;76244;53.434;14.484;2024-02-14T10:34:49;101587.74;;;6.42;73.86
85798;BME280;76244;53.434;14.484;2024-02-14T10:37:22;101589.63;;;6.47;73.99
85798;BME280;76244;53.434;14.484;2024-02-14T10:39:57;101586.42;;;6.51;73.92
85798;BME280;76244;53.434;14.484;2024-02-14T10:42:33;101586.23;;;6.56;74.04
85798;BME280;76244;53.434;14.484;2024-02-14T10:45:07;101584.76;;;6.60;74.11
85798;BME280;76244;53.434;14.484;2024-02-14T10:47:42;101584.77;;;6.61;74.09
85798;BME280;76244;53.434;14.484;2024-02-14T10:50:16;101583.88;;;6.60;73.98
85798;BME280;76244;53.434;14.484;2024-02-14T10:52:51;101583.73;;;6.61;74.28
85798;BME280;76244;53.434;14.484;2024-02-14T10:55:31;101583.10;;;6.63;74.17
85798;BME280;76244;53.434;14.484;2024-02-14T10:58:05;101579.69;;;6.66;74.28
85798;BME280;76244;53.434;14.484;2024-02-14T11:00:39;101576.57;;;6.67;73.93
85798;BME280;76244;53.434;14.484;2024-02-14T11:03:13;101571.04;;;6.71;74.07
85798;BME280;76244;53.434;14.484;2024-02-14T11:05:48;101566.20;;;6.72;73.97
85798;BME280;76244;53.434;14.484;2024-02-14T11:08:21;101562.91;;;6.74;73.93
85798;BME280;76244;53.434;14.484;2024-02-14T11:10:56;101559.77;;;6.74;73.81
85798;BME280;76244;53.434;14.484;2024-02-14T11:13:31;101557.86;;;6.75;73.85
85798;BME280;76244;53.434;14.484;2024-02-14T11:16:09;101554.35;;;6.74;73.87
85798;BME280;76244;53.434;14.484;2024-02-14T11:18:42;101551.70;;;6.73;73.95
85798;BME280;76244;53.434;14.484;2024-02-14T11:21:18;101550.30;;;6.73;74.10
85798;BME280;76244;53.434;14.484;2024-02-14T11:24:06;101549.14;;;6.76;74.20
85798;BME280;76244;53.434;14.484;2024-02-14T11:26:45;101544.02;;;6.80;74.11
85798;BME280;76244;53.434;14.484;2024-02-14T11:29:18;101541.84;;;6.84;73.99
85798;BME280;76244;53.434;14.484;2024-02-14T11:32:00;101541.94;;;6.88;74.12
85798;BME280;76244;53.434;14.484;2024-02-14T11:34:34;101541.73;;;6.93;74.19
85798;BME280;76244;53.434;14.484;2024-02-14T11:37:13;101539.76;;;6.98;74.17
85798;BME280;76244;53.434;14.484;2024-02-14T11:39:47;101541.78;;;7.01;74.24
85798;BME280;76244;53.434;14.484;2024-02-14T11:42:22;101542.17;;;7.03;74.12
85798;BME280;76244;53.434;14.484;2024-02-14T11:44:57;101537.31;;;7.04;74.31
85798;BME280;76244;53.434;14.484;2024-02-14T11:47:30;101532.14;;;7.07;74.25
85798;BME280;76244;53.434;14.484;2024-02-14T11:50:04;101532.45;;;7.12;74.33
85798;BME280;76244;53.434;14.484;2024-02-14T11:52:37;101531.15;;;7.17;74.03
85798;BME280;76244;53.434;14.484;2024-02-14T11:55:10;101531.79;;;7.21;73.90
85798;BME280;76244;53.434;14.484;2024-02-14T11:57:44;101525.52;;;7.23;73.63
85798;BME280;76244;53.434;14.484;2024-02-14T12:00:20;101522.70;;;7.23;73.64
85798;BME280;76244;53.434;14.484;2024-02-14T12:02:52;101528.67;;;7.23;73.64
85798;BME280;76244;53.434;14.484;2024-02-14T12:05:25;101522.31;;;7.21;73.38
85798;BME280;76244;53.434;14.484;2024-02-14T12:07:58;101523.69;;;7.20;73.65
85798;BME280;76244;53.434;14.484;2024-02-14T12:10:34;101523.51;;;7.20;73.77
85798;BME280;76244;53.434;14.484;2024-02-14T12:13:09;101525.95;;;7.20;73.78
85798;BME280;76244;53.434;14.484;2024-02-14T12:15:44;101526.67;;;7.20;73.75
85798;BME280;76244;53.434;14.484;2024-02-14T12:18:18;101521.83;;;7.22;73.63
85798;BME280;76244;53.434;14.484;2024-02-14T12:20:52;101526.27;;;7.24;73.73
85798;BME280;76244;53.434;14.484;2024-02-14T12:23:37;101527.00;;;7.26;73.47
85798;BME280;76244;53.434;14.484;2024-02-14T12:26:10;101521.05;;;7.26;73.48
85798;BME280;76244;53.434;14.484;2024-02-14T12:28:48;101521.30;;;7.29;73.55
85798;BME280;76244;53.434;14.484;2024-02-14T12:31:24;101522.23;;;7.31;73.54
85798;BME280;76244;53.434;14.484;2024-02-14T12:33:57;101523.30;;;7.32;73.66
85798;BME280;76244;53.434;14.484;2024-02-14T12:36:34;101525.25;;;7.33;73.68
85798;BME280;76244;53.434;14.484;2024-02-14T12:39:06;101527.69;;;7.32;73.64
85798;BME280;76244;53.434;14.484;2024-02-14T12:41:43;101527.32;;;7.31;73.52
85798;BME280;76244;53.434;14.484;2024-02-14T12:44:17;101522.07;;;7.31;73.49
85798;BME280;76244;53.434;14.484;2024-02-14T12:46:49;101521.56;;;7.32;73.52
85798;BME280;76244;53.434;14.484;2024-02-14T12:49:22;101520.91;;;7.35;73.40
85798;BME280;76244;53.434;14.484;2024-02-14T12:51:57;101521.00;;;7.38;73.49
85798;BME280;76244;53.434;14.484;2024-02-14T12:54:29;101520.34;;;7.39;73.36
85798;BME280;76244;53.434;14.484;2024-02-14T12:57:03;101521.21;;;7.39;73.20
85798;BME280;76244;53.434;14.484;2024-02-14T12:59:36;101521.21;;;7.39;73.18
85798;BME280;76244;53.434;14.484;2024-02-14T13:02:09;101520.67;;;7.38;73.15
85798;BME280;76244;53.434;14.484;2024-02-14T13:04:42;101519.91;;;7.37;73.15
85798;BME280;76244;53.434;14.484;2024-02-14T13:07:15;101517.23;;;7.34;73.17
85798;BME280;76244;53.434;14.484;2024-02-14T13:09:49;101515.27;;;7.33;73.42
85798;BME280;76244;53.434;14.484;2024-02-14T13:12:22;101513.52;;;7.33;73.27
85798;BME280;76244;53.434;14.484;2024-02-14T13:14:55;101516.50;;;7.33;73.43
85798;BME280;76244;53.434;14.484;2024-02-14T13:17:27;101518.14;;;7.36;73.37
85798;BME280;76244;53.434;14.484;2024-02-14T13:20:01;101520.82;;;7.38;73.44
85798;BME280;76244;53.434;14.484;2024-02-14T13:22:34;101522.94;;;7.38;73.36
85798;BME280;76244;53.434;14.484;2024-02-14T13:25:08;101521.89;;;7.38;73.57